sensor_id;sensor_type;location;lat;lon;timestamp;P1;durP1;ratioP1;P2;durP2;ratioP2
36663;SDS011;53333;51.976;20.144;2024-01-15T00:01:10;18.40;;;10.10;;
36663;SDS011;53333;51.976;20.144;2024-01-15T00:03:46;20.70;;;10.48;;
36663;SDS011;53333;51.976;20.144;2024-01-15T00:06:20;22.25;;;11.30;;
36663;SDS011;53333;51.976;20.144;2024-01-15T00:08:54;17.95;;;11.27;;
36663;SDS011;53333;51.976;20.144;2024-01-15T00:11:26;19.98;;;11.35;;
36663;SDS011;53333;51.976;20.144;2024-01-15T00:13:59;21.25;;;11.57;;
36663;SDS011;53333;51.976;20.144;2024-01-15T00:16:37;21.70;;;11.85;;
36663;SDS011;53333;51.976;20.144;2024-01-15T00:19:10;19.80;;;12.13;;
36663;SDS011;53333;51.976;20.144;2024-01-15T00:21:44;26.00;;;12.93;;
36663;SDS011;53333;51.976;20.144;2024-01-15T00:24:17;19.52;;;11.35;;
36663;SDS011;53333;51.976;20.144;2024-01-15T00:26:51;20.52;;;11.30;;
36663;SDS011;53333;51.976;20.144;2024-01-15T00:29:28;22.77;;;12.23;;
36663;SDS011;53333;51.976;20.144;2024-01-15T00:32:04;23.30;;;12.50;;
36663;SDS011;53333;51.976;20.144;2024-01-15T00:37:12;20.50;;;12.20;;
36663;SDS011;53333;51.976;20.144;2024-01-15T00:39:45;18.10;;;10.95;;
36663;SDS011;53333;51.976;20.144;2024-01-15T00:42:18;22.13;;;11.77;;
36663;SDS011;53333;51.976;20.144;2024-01-15T00:44:51;22.30;;;12.30;;
36663;SDS011;53333;51.976;20.144;2024-01-15T00:47:25;21.17;;;10.75;;
36663;SDS011;53333;51.976;20.144;2024-01-15T00:49:58;20.03;;;11.10;;
36663;SDS011;53333;51.976;20.144;2024-01-15T00:52:32;20.95;;;11.38;;
36663;SDS011;53333;51.976;20.144;2024-01-15T00:55:07;24.58;;;11.10;;
36663;SDS011;53333;51.976;20.144;2024-01-15T00:57:40;16.98;;;9.93;;
36663;SDS011;53333;51.976;20.144;2024-01-15T01:00:14;19.73;;;11.70;;
36663;SDS011;53333;51.976;20.144;2024-01-15T01:02:47;20.02;;;11.07;;
36663;SDS011;53333;51.976;20.144;2024-01-15T01:05:20;18.77;;;11.00;;
36663;SDS011;53333;51.976;20.144;2024-01-15T01:07:57;20.98;;;11.18;;
36663;SDS011;53333;51.976;20.144;2024-01-15T01:10:32;18.45;;;10.82;;
36663;SDS011;53333;51.976;20.144;2024-01-15T01:13:05;20.00;;;11.33;;
36663;SDS011;53333;51.976;20.144;2024-01-15T01:15:41;18.67;;;10.93;;
36663;SDS011;53333;51.976;20.144;2024-01-15T01:18:16;21.17;;;12.13;;
36663;SDS011;53333;51.976;20.144;2024-01-15T01:20:49;20.15;;;11.23;;
36663;SDS011;53333;51.976;20.144;2024-01-15T01:23:25;22.73;;;11.60;;
36663;SDS011;53333;51.976;20.144;2024-01-15T01:26:00;20.77;;;10.82;;
36663;SDS011;53333;51.976;20.144;2024-01-15T01:28:33;18.38;;;10.55;;
36663;SDS011;53333;51.976;20.144;2024-01-15T01:31:09;17.35;;;10.85;;
36663;SDS011;53333;51.976;20.144;2024-01-15T01:33:42;24.43;;;12.13;;
36663;SDS011;53333;51.976;20.144;2024-01-15T01:36:15;22.42;;;11.43;;
36663;SDS011;53333;51.976;20.144;2024-01-15T01:38:52;21.02;;;10.63;;
36663;SDS011;53333;51.976;20.144;2024-01-15T01:41:24;26.13;;;12.20;;
36663;SDS011;53333;51.976;20.144;2024-01-15T01:44:04;22.75;;;10.55;;
36663;SDS011;53333;51.976;20.144;2024-01-15T01:46:40;19.98;;;11.20;;
36663;SDS011;53333;51.976;20.144;2024-01-15T01:49:15;24.15;;;12.43;;
36663;SDS011;53333;51.976;20.144;2024-01-15T01:54:23;20.88;;;10.98;;
36663;SDS011;53333;51.976;20.144;2024-01-15T01:56:57;19.48;;;10.85;;
36663;SDS011;53333;51.976;20.144;2024-01-15T01:59:31;21.20;;;12.60;;
36663;SDS011;53333;51.976;20.144;2024-01-15T02:02:06;23.13;;;11.95;;
36663;SDS011;53333;51.976;20.144;2024-01-15T02:04:39;20.10;;;11.00;;
36663;SDS011;53333;51.976;20.144;2024-01-15T02:07:12;20.52;;;11.35;;
36663;SDS011;53333;51.976;20.144;2024-01-15T02:09:50;21.10;;;11.95;;
36663;SDS011;53333;51.976;20.144;2024-01-15T02:12:23;21.10;;;12.40;;
36663;SDS011;53333;51.976;20.144;2024-01-15T02:14:56;20.88;;;11.80;;
36663;SDS011;53333;51.976;20.144;2024-01-15T02:17:29;18.13;;;12.45;;
36663;SDS011;53333;51.976;20.144;2024-01-15T02:20:02;24.95;;;12.18;;
36663;SDS011;53333;51.976;20.144;2024-01-15T02:22:35;22.13;;;11.95;;
36663;SDS011;53333;51.976;20.144;2024-01-15T02:25:10;27.88;;;13.32;;
36663;SDS011;53333;51.976;20.144;2024-01-15T02:27:43;23.83;;;12.75;;
36663;SDS011;53333;51.976;20.144;2024-01-15T02:30:17;18.27;;;11.00;;
36663;SDS011;53333;51.976;20.144;2024-01-15T02:32:50;19.52;;;9.45;;
36663;SDS011;53333;51.976;20.144;2024-01-15T02:35:23;18.92;;;11.50;;
36663;SDS011;53333;51.976;20.144;2024-01-15T02:37:56;24.70;;;11.85;;
36663;SDS011;53333;51.976;20.144;2024-01-15T02:40:30;23.33;;;12.68;;
36663;SDS011;53333;51.976;20.144;2024-01-15T02:43:04;22.85;;;12.40;;
36663;SDS011;53333;51.976;20.144;2024-01-15T02:45:37;19.38;;;11.27;;
36663;SDS011;53333;51.976;20.144;2024-01-15T02:48:10;23.23;;;11.45;;
36663;SDS011;53333;51.976;20.144;2024-01-15T02:50:43;24.30;;;11.73;;
36663;SDS011;53333;51.976;20.144;2024-01-15T02:53:16;20.88;;;9.95;;
36663;SDS011;53333;51.976;20.144;2024-01-15T02:55:50;19.00;;;10.38;;
36663;SDS011;53333;51.976;20.144;2024-01-15T02:58:23;20.75;;;11.60;;
36663;SDS011;53333;51.976;20.144;2024-01-15T03:00:56;17.95;;;10.60;;
36663;SDS011;53333;51.976;20.144;2024-01-15T03:03:29;19.60;;;10.90;;
36663;SDS011;53333;51.976;20.144;2024-01-15T03:06:04;19.50;;;10.43;;
36663;SDS011;53333;51.976;20.144;2024-01-15T03:08:38;23.40;;;11.23;;
36663;SDS011;53333;51.976;20.144;2024-01-15T03:11:12;17.90;;;10.45;;
36663;SDS011;53333;51.976;20.144;2024-01-15T03:13:45;17.02;;;9.68;;
36663;SDS011;53333;51.976;20.144;2024-01-15T03:16:18;16.50;;;9.75;;
36663;SDS011;53333;51.976;20.144;2024-01-15T03:21:25;18.30;;;9.63;;
36663;SDS011;53333;51.976;20.144;2024-01-15T03:23:58;18.85;;;10.40;;
36663;SDS011;53333;51.976;20.144;2024-01-15T03:26:32;16.93;;;9.97;;
36663;SDS011;53333;51.976;20.144;2024-01-15T03:29:05;18.52;;;11.10;;
36663;SDS011;53333;51.976;20.144;2024-01-15T03:31:38;20.58;;;10.02;;
36663;SDS011;53333;51.976;20.144;2024-01-15T03:34:11;17.08;;;10.02;;
36663;SDS011;53333;51.976;20.144;2024-01-15T03:36:44;16.80;;;9.48;;
36663;SDS011;53333;51.976;20.144;2024-01-15T03:39:17;16.57;;;9.57;;
36663;SDS011;53333;51.976;20.144;2024-01-15T03:41:52;17.50;;;10.17;;
36663;SDS011;53333;51.976;20.144;2024-01-15T03:44:25;15.80;;;9.38;;
36663;SDS011;53333;51.976;20.144;2024-01-15T03:46:58;18.45;;;10.07;;
36663;SDS011;53333;51.976;20.144;2024-01-15T03:49:31;20.83;;;11.18;;
36663;SDS011;53333;51.976;20.144;2024-01-15T03:52:04;17.75;;;9.93;;
36663;SDS011;53333;51.976;20.144;2024-01-15T03:54:37;18.83;;;9.57;;
36663;SDS011;53333;51.976;20.144;2024-01-15T03:57:12;19.33;;;11.02;;
36663;SDS011;53333;51.976;20.144;2024-01-15T03:59:45;15.45;;;9.20;;
36663;SDS011;53333;51.976;20.144;2024-01-15T04:02:19;17.65;;;10.18;;
36663;SDS011;53333;51.976;20.144;2024-01-15T04:04:51;17.25;;;10.05;;
36663;SDS011;53333;51.976;20.144;2024-01-15T04:07:24;15.33;;;9.00;;
36663;SDS011;53333;51.976;20.144;2024-01-15T04:09:57;15.80;;;9.18;;
36663;SDS011;53333;51.976;20.144;2024-01-15T04:12:32;20.90;;;10.25;;
36663;SDS011;53333;51.976;20.144;2024-01-15T04:15:05;16.42;;;8.90;;
36663;SDS011;53333;51.976;20.144;2024-01-15T04:17:39;18.30;;;10.27;;
36663;SDS011;53333;51.976;20.144;2024-01-15T04:20:12;16.63;;;8.93;;
36663;SDS011;53333;51.976;20.144;2024-01-15T04:22:45;21.37;;;11.93;;
36663;SDS011;53333;51.976;20.144;2024-01-15T04:25:18;18.60;;;9.50;;
36663;SDS011;53333;51.976;20.144;2024-01-15T04:27:52;16.35;;;9.50;;
36663;SDS011;53333;51.976;20.144;2024-01-15T04:30:25;22.48;;;10.32;;
36663;SDS011;53333;51.976;20.144;2024-01-15T04:32:58;18.88;;;10.23;;
36663;SDS011;53333;51.976;20.144;2024-01-15T04:35:31;16.52;;;10.98;;
36663;SDS011;53333;51.976;20.144;2024-01-15T04:38:04;14.85;;;9.43;;
36663;SDS011;53333;51.976;20.144;2024-01-15T04:40:37;18.33;;;9.48;;
36663;SDS011;53333;51.976;20.144;2024-01-15T04:43:11;15.32;;;9.13;;
36663;SDS011;53333;51.976;20.144;2024-01-15T04:45:44;15.50;;;9.50;;
36663;SDS011;53333;51.976;20.144;2024-01-15T04:48:17;18.63;;;10.50;;
36663;SDS011;53333;51.976;20.144;2024-01-15T04:50:50;18.53;;;11.13;;
36663;SDS011;53333;51.976;20.144;2024-01-15T04:53:23;17.00;;;9.60;;
36663;SDS011;53333;51.976;20.144;2024-01-15T04:55:56;17.60;;;9.90;;
36663;SDS011;53333;51.976;20.144;2024-01-15T04:58:30;16.00;;;10.63;;
36663;SDS011;53333;51.976;20.144;2024-01-15T05:01:03;17.48;;;10.55;;
36663;SDS011;53333;51.976;20.144;2024-01-15T05:03:36;15.13;;;9.40;;
36663;SDS011;53333;51.976;20.144;2024-01-15T05:06:09;18.05;;;10.40;;
36663;SDS011;53333;51.976;20.144;2024-01-15T05:08:42;15.68;;;9.38;;
36663;SDS011;53333;51.976;20.144;2024-01-15T05:11:15;19.77;;;10.10;;
36663;SDS011;53333;51.976;20.144;2024-01-15T05:13:50;15.70;;;9.57;;
36663;SDS011;53333;51.976;20.144;2024-01-15T05:16:23;17.90;;;10.10;;
36663;SDS011;53333;51.976;20.144;2024-01-15T05:18:55;18.20;;;9.80;;
36663;SDS011;53333;51.976;20.144;2024-01-15T05:21:28;17.43;;;10.50;;
36663;SDS011;53333;51.976;20.144;2024-01-15T05:24:01;17.07;;;10.57;;
36663;SDS011;53333;51.976;20.144;2024-01-15T05:26:34;19.73;;;10.20;;
36663;SDS011;53333;51.976;20.144;2024-01-15T05:29:09;17.05;;;10.20;;
36663;SDS011;53333;51.976;20.144;2024-01-15T05:31:42;19.23;;;10.13;;
36663;SDS011;53333;51.976;20.144;2024-01-15T05:34:15;17.70;;;9.68;;
36663;SDS011;53333;51.976;20.144;2024-01-15T05:36:48;18.60;;;9.77;;
36663;SDS011;53333;51.976;20.144;2024-01-15T05:39:21;15.25;;;9.85;;
36663;SDS011;53333;51.976;20.144;2024-01-15T05:41:54;17.20;;;10.75;;
36663;SDS011;53333;51.976;20.144;2024-01-15T05:44:29;19.20;;;10.68;;
36663;SDS011;53333;51.976;20.144;2024-01-15T05:47:02;21.15;;;10.60;;
36663;SDS011;53333;51.976;20.144;2024-01-15T05:49:35;18.35;;;9.75;;
36663;SDS011;53333;51.976;20.144;2024-01-15T05:52:08;18.25;;;10.55;;
36663;SDS011;53333;51.976;20.144;2024-01-15T05:54:41;16.27;;;9.20;;
36663;SDS011;53333;51.976;20.144;2024-01-15T05:57:14;18.63;;;10.13;;
36663;SDS011;53333;51.976;20.144;2024-01-15T05:59:49;18.20;;;10.10;;
36663;SDS011;53333;51.976;20.144;2024-01-15T06:02:22;17.20;;;10.27;;
36663;SDS011;53333;51.976;20.144;2024-01-15T06:04:55;15.07;;;9.50;;
36663;SDS011;53333;51.976;20.144;2024-01-15T06:07:28;13.95;;;9.30;;
36663;SDS011;53333;51.976;20.144;2024-01-15T06:10:01;16.40;;;9.23;;
36663;SDS011;53333;51.976;20.144;2024-01-15T06:12:34;18.35;;;9.25;;
36663;SDS011;53333;51.976;20.144;2024-01-15T06:15:09;15.77;;;9.40;;
36663;SDS011;53333;51.976;20.144;2024-01-15T06:17:42;17.38;;;9.68;;
36663;SDS011;53333;51.976;20.144;2024-01-15T06:20:16;15.48;;;9.43;;
36663;SDS011;53333;51.976;20.144;2024-01-15T06:22:49;20.73;;;10.98;;
36663;SDS011;53333;51.976;20.144;2024-01-15T06:25:22;18.27;;;10.55;;
36663;SDS011;53333;51.976;20.144;2024-01-15T06:27:55;18.60;;;9.95;;
36663;SDS011;53333;51.976;20.144;2024-01-15T06:30:29;19.60;;;10.75;;
36663;SDS011;53333;51.976;20.144;2024-01-15T06:33:03;15.32;;;9.98;;
36663;SDS011;53333;51.976;20.144;2024-01-15T06:35:36;18.80;;;10.95;;
36663;SDS011;53333;51.976;20.144;2024-01-15T06:38:09;17.80;;;10.90;;
36663;SDS011;53333;51.976;20.144;2024-01-15T06:40:42;16.98;;;10.20;;
36663;SDS011;53333;51.976;20.144;2024-01-15T06:43:17;14.02;;;8.82;;
36663;SDS011;53333;51.976;20.144;2024-01-15T06:45:51;18.55;;;10.55;;
36663;SDS011;53333;51.976;20.144;2024-01-15T06:48:24;19.13;;;10.60;;
36663;SDS011;53333;51.976;20.144;2024-01-15T06:50:57;17.60;;;11.20;;
36663;SDS011;53333;51.976;20.144;2024-01-15T06:53:30;16.88;;;10.18;;
36663;SDS011;53333;51.976;20.144;2024-01-15T06:56:03;21.80;;;11.43;;
36663;SDS011;53333;51.976;20.144;2024-01-15T06:58:36;20.52;;;11.70;;
36663;SDS011;53333;51.976;20.144;2024-01-15T07:01:11;18.38;;;11.38;;
36663;SDS011;53333;51.976;20.144;2024-01-15T07:03:44;21.73;;;12.20;;
36663;SDS011;53333;51.976;20.144;2024-01-15T07:06:17;23.17;;;12.73;;
36663;SDS011;53333;51.976;20.144;2024-01-15T07:08:50;24.98;;;12.73;;
36663;SDS011;53333;51.976;20.144;2024-01-15T07:11:23;24.08;;;12.48;;
36663;SDS011;53333;51.976;20.144;2024-01-15T07:13:56;24.15;;;12.32;;
36663;SDS011;53333;51.976;20.144;2024-01-15T07:16:30;23.42;;;11.98;;
36663;SDS011;53333;51.976;20.144;2024-01-15T07:19:09;24.98;;;12.20;;
36663;SDS011;53333;51.976;20.144;2024-01-15T07:21:42;25.65;;;12.18;;
36663;SDS011;53333;51.976;20.144;2024-01-15T07:24:15;26.45;;;13.07;;
36663;SDS011;53333;51.976;20.144;2024-01-15T07:26:48;21.70;;;12.50;;
36663;SDS011;53333;51.976;20.144;2024-01-15T07:29:21;21.83;;;11.73;;
36663;SDS011;53333;51.976;20.144;2024-01-15T07:31:55;22.75;;;12.05;;
36663;SDS011;53333;51.976;20.144;2024-01-15T07:34:28;25.52;;;11.70;;
36663;SDS011;53333;51.976;20.144;2024-01-15T07:37:01;19.02;;;11.55;;
36663;SDS011;53333;51.976;20.144;2024-01-15T07:39:35;19.00;;;11.73;;
36663;SDS011;53333;51.976;20.144;2024-01-15T07:42:08;20.40;;;11.05;;
36663;SDS011;53333;51.976;20.144;2024-01-15T07:44:41;18.25;;;10.60;;
36663;SDS011;53333;51.976;20.144;2024-01-15T07:47:15;20.53;;;11.40;;
36663;SDS011;53333;51.976;20.144;2024-01-15T07:49:48;22.15;;;11.55;;
36663;SDS011;53333;51.976;20.144;2024-01-15T07:52:21;21.03;;;11.50;;
36663;SDS011;53333;51.976;20.144;2024-01-15T07:54:54;23.77;;;11.35;;
36663;SDS011;53333;51.976;20.144;2024-01-15T07:57:27;20.40;;;11.57;;
36663;SDS011;53333;51.976;20.144;2024-01-15T08:00:00;20.50;;;11.50;;
36663;SDS011;53333;51.976;20.144;2024-01-15T08:02:36;24.48;;;11.77;;
36663;SDS011;53333;51.976;20.144;2024-01-15T08:05:09;20.75;;;11.23;;
36663;SDS011;53333;51.976;20.144;2024-01-15T08:07:42;18.45;;;9.65;;
36663;SDS011;53333;51.976;20.144;2024-01-15T08:10:15;16.23;;;9.00;;
36663;SDS011;53333;51.976;20.144;2024-01-15T08:12:48;18.30;;;9.53;;
36663;SDS011;53333;51.976;20.144;2024-01-15T08:15:21;15.95;;;9.68;;
36663;SDS011;53333;51.976;20.144;2024-01-15T08:17:58;16.83;;;8.85;;
36663;SDS011;53333;51.976;20.144;2024-01-15T08:20:31;15.73;;;9.43;;
36663;SDS011;53333;51.976;20.144;2024-01-15T08:23:04;15.73;;;8.67;;
36663;SDS011;53333;51.976;20.144;2024-01-15T08:25:37;14.30;;;8.02;;
36663;SDS011;53333;51.976;20.144;2024-01-15T08:28:10;15.38;;;7.95;;
36663;SDS011;53333;51.976;20.144;2024-01-15T08:30:43;14.48;;;8.18;;
36663;SDS011;53333;51.976;20.144;2024-01-15T08:33:17;15.18;;;8.02;;
36663;SDS011;53333;51.976;20.144;2024-01-15T08:35:53;14.35;;;7.00;;
36663;SDS011;53333;51.976;20.144;2024-01-15T08:38:26;15.88;;;8.63;;
36663;SDS011;53333;51.976;20.144;2024-01-15T08:40:59;14.85;;;7.00;;
36663;SDS011;53333;51.976;20.144;2024-01-15T08:43:32;12.85;;;7.63;;
36663;SDS011;53333;51.976;20.144;2024-01-15T08:46:04;13.20;;;7.65;;
36663;SDS011;53333;51.976;20.144;2024-01-15T08:51:13;8.63;;;5.82;;
36663;SDS011;53333;51.976;20.144;2024-01-15T08:53:46;15.98;;;6.43;;
36663;SDS011;53333;51.976;20.144;2024-01-15T08:56:19;12.30;;;6.50;;
36663;SDS011;53333;51.976;20.144;2024-01-15T08:58:52;11.20;;;6.60;;
36663;SDS011;53333;51.976;20.144;2024-01-15T09:01:24;9.88;;;5.80;;
36663;SDS011;53333;51.976;20.144;2024-01-15T09:03:59;14.32;;;6.10;;
36663;SDS011;53333;51.976;20.144;2024-01-15T09:06:32;12.10;;;6.35;;
36663;SDS011;53333;51.976;20.144;2024-01-15T09:09:05;15.68;;;6.32;;
36663;SDS011;53333;51.976;20.144;2024-01-15T09:11:38;10.52;;;6.03;;
36663;SDS011;53333;51.976;20.144;2024-01-15T09:14:11;13.67;;;5.60;;
36663;SDS011;53333;51.976;20.144;2024-01-15T09:16:47;11.10;;;5.97;;
36663;SDS011;53333;51.976;20.144;2024-01-15T09:19:21;10.88;;;5.88;;
36663;SDS011;53333;51.976;20.144;2024-01-15T09:21:54;11.18;;;5.60;;
36663;SDS011;53333;51.976;20.144;2024-01-15T09:24:27;12.02;;;5.60;;
36663;SDS011;53333;51.976;20.144;2024-01-15T09:27:00;10.23;;;5.28;;
36663;SDS011;53333;51.976;20.144;2024-01-15T09:29:34;13.82;;;5.97;;
36663;SDS011;53333;51.976;20.144;2024-01-15T09:32:08;9.68;;;5.63;;
36663;SDS011;53333;51.976;20.144;2024-01-15T09:34:42;14.30;;;6.18;;
36663;SDS011;53333;51.976;20.144;2024-01-15T09:37:15;9.30;;;5.95;;
36663;SDS011;53333;51.976;20.144;2024-01-15T09:40:08;13.05;;;6.10;;
36663;SDS011;53333;51.976;20.144;2024-01-15T09:42:46;11.40;;;6.10;;
36663;SDS011;53333;51.976;20.144;2024-01-15T09:45:19;10.35;;;6.07;;
36663;SDS011;53333;51.976;20.144;2024-01-15T09:47:52;16.40;;;6.40;;
36663;SDS011;53333;51.976;20.144;2024-01-15T09:50:27;10.88;;;5.93;;
36663;SDS011;53333;51.976;20.144;2024-01-15T09:53:00;12.85;;;6.05;;
36663;SDS011;53333;51.976;20.144;2024-01-15T09:55:33;13.30;;;6.93;;
36663;SDS011;53333;51.976;20.144;2024-01-15T09:58:07;14.05;;;7.05;;
36663;SDS011;53333;51.976;20.144;2024-01-15T10:00:41;14.63;;;7.85;;
36663;SDS011;53333;51.976;20.144;2024-01-15T10:03:16;11.32;;;7.05;;
36663;SDS011;53333;51.976;20.144;2024-01-15T10:05:51;20.07;;;7.33;;
36663;SDS011;53333;51.976;20.144;2024-01-15T10:08:24;17.75;;;8.68;;
36663;SDS011;53333;51.976;20.144;2024-01-15T10:10:58;11.95;;;6.95;;
36663;SDS011;53333;51.976;20.144;2024-01-15T10:13:30;16.33;;;10.07;;
36663;SDS011;53333;51.976;20.144;2024-01-15T10:16:04;15.32;;;7.78;;
36663;SDS011;53333;51.976;20.144;2024-01-15T10:18:37;11.90;;;7.05;;
36663;SDS011;53333;51.976;20.144;2024-01-15T10:23:45;13.80;;;6.47;;
36663;SDS011;53333;51.976;20.144;2024-01-15T10:26:21;14.23;;;7.53;;
36663;SDS011;53333;51.976;20.144;2024-01-15T10:28:58;15.13;;;7.88;;
36663;SDS011;53333;51.976;20.144;2024-01-15T10:34:10;15.00;;;8.25;;
36663;SDS011;53333;51.976;20.144;2024-01-15T10:36:48;12.82;;;7.93;;
36663;SDS011;53333;51.976;20.144;2024-01-15T10:39:26;11.50;;;6.80;;
36663;SDS011;53333;51.976;20.144;2024-01-15T10:41:59;13.83;;;7.70;;
36663;SDS011;53333;51.976;20.144;2024-01-15T10:44:33;17.00;;;8.43;;
36663;SDS011;53333;51.976;20.144;2024-01-15T10:47:06;15.50;;;8.20;;
36663;SDS011;53333;51.976;20.144;2024-01-15T10:49:40;14.57;;;7.82;;
36663;SDS011;53333;51.976;20.144;2024-01-15T10:52:14;13.38;;;6.63;;
36663;SDS011;53333;51.976;20.144;2024-01-15T10:54:47;11.70;;;7.43;;
36663;SDS011;53333;51.976;20.144;2024-01-15T10:57:22;15.50;;;7.32;;
36663;SDS011;53333;51.976;20.144;2024-01-15T10:59:58;14.43;;;7.38;;
36663;SDS011;53333;51.976;20.144;2024-01-15T11:02:31;10.53;;;7.03;;
36663;SDS011;53333;51.976;20.144;2024-01-15T11:05:05;22.13;;;7.80;;
36663;SDS011;53333;51.976;20.144;2024-01-15T11:07:40;13.85;;;7.55;;
36663;SDS011;53333;51.976;20.144;2024-01-15T11:13:10;14.85;;;8.00;;
36663;SDS011;53333;51.976;20.144;2024-01-15T11:15:59;18.38;;;8.93;;
36663;SDS011;53333;51.976;20.144;2024-01-15T11:18:34;16.17;;;9.15;;
36663;SDS011;53333;51.976;20.144;2024-01-15T11:21:22;17.70;;;8.10;;
36663;SDS011;53333;51.976;20.144;2024-01-15T11:23:57;12.25;;;7.15;;
36663;SDS011;53333;51.976;20.144;2024-01-15T11:26:32;17.55;;;8.57;;
36663;SDS011;53333;51.976;20.144;2024-01-15T11:29:07;18.05;;;9.00;;
36663;SDS011;53333;51.976;20.144;2024-01-15T11:31:59;15.75;;;8.57;;
36663;SDS011;53333;51.976;20.144;2024-01-15T11:34:50;17.52;;;10.02;;
36663;SDS011;53333;51.976;20.144;2024-01-15T11:37:25;17.58;;;8.82;;
36663;SDS011;53333;51.976;20.144;2024-01-15T11:40:02;22.52;;;9.30;;
36663;SDS011;53333;51.976;20.144;2024-01-15T11:42:36;24.23;;;11.30;;
36663;SDS011;53333;51.976;20.144;2024-01-15T11:45:10;19.05;;;9.82;;
36663;SDS011;53333;51.976;20.144;2024-01-15T11:47:58;18.35;;;9.65;;
36663;SDS011;53333;51.976;20.144;2024-01-15T11:50:42;19.85;;;10.48;;
36663;SDS011;53333;51.976;20.144;2024-01-15T11:53:17;19.92;;;8.95;;
36663;SDS011;53333;51.976;20.144;2024-01-15T11:56:01;17.48;;;8.07;;
36663;SDS011;53333;51.976;20.144;2024-01-15T11:58:35;22.13;;;10.98;;
36663;SDS011;53333;51.976;20.144;2024-01-15T12:01:09;22.25;;;10.55;;
36663;SDS011;53333;51.976;20.144;2024-01-15T12:03:43;17.17;;;9.25;;
36663;SDS011;53333;51.976;20.144;2024-01-15T12:06:17;16.92;;;8.77;;
36663;SDS011;53333;51.976;20.144;2024-01-15T12:08:50;15.98;;;8.60;;
36663;SDS011;53333;51.976;20.144;2024-01-15T12:11:24;13.53;;;8.47;;
36663;SDS011;53333;51.976;20.144;2024-01-15T12:14:00;14.73;;;8.45;;
36663;SDS011;53333;51.976;20.144;2024-01-15T12:16:33;18.90;;;9.55;;
36663;SDS011;53333;51.976;20.144;2024-01-15T12:19:06;20.35;;;9.48;;
36663;SDS011;53333;51.976;20.144;2024-01-15T12:21:39;18.00;;;8.95;;
36663;SDS011;53333;51.976;20.144;2024-01-15T12:24:12;17.15;;;8.23;;
36663;SDS011;53333;51.976;20.144;2024-01-15T12:26:47;16.17;;;8.15;;
36663;SDS011;53333;51.976;20.144;2024-01-15T12:29:20;22.60;;;9.45;;
36663;SDS011;53333;51.976;20.144;2024-01-15T12:31:53;17.33;;;9.07;;
36663;SDS011;53333;51.976;20.144;2024-01-15T12:34:28;19.30;;;8.93;;
36663;SDS011;53333;51.976;20.144;2024-01-15T12:37:02;19.77;;;10.90;;
36663;SDS011;53333;51.976;20.144;2024-01-15T12:39:35;17.98;;;9.38;;
36663;SDS011;53333;51.976;20.144;2024-01-15T12:42:09;20.83;;;9.20;;
36663;SDS011;53333;51.976;20.144;2024-01-15T12:44:42;18.88;;;9.27;;
36663;SDS011;53333;51.976;20.144;2024-01-15T12:47:15;13.48;;;8.07;;
36663;SDS011;53333;51.976;20.144;2024-01-15T12:49:51;15.82;;;8.25;;
36663;SDS011;53333;51.976;20.144;2024-01-15T12:52:36;14.52;;;8.18;;
36663;SDS011;53333;51.976;20.144;2024-01-15T12:55:09;12.20;;;7.55;;
36663;SDS011;53333;51.976;20.144;2024-01-15T12:57:43;15.02;;;8.25;;
36663;SDS011;53333;51.976;20.144;2024-01-15T13:00:17;13.75;;;7.80;;
36663;SDS011;53333;51.976;20.144;2024-01-15T13:02:50;12.20;;;7.20;;
36663;SDS011;53333;51.976;20.144;2024-01-15T13:05:23;14.43;;;7.73;;
36663;SDS011;53333;51.976;20.144;2024-01-15T13:07:59;13.25;;;7.70;;
36663;SDS011;53333;51.976;20.144;2024-01-15T13:10:32;22.67;;;10.07;;
36663;SDS011;53333;51.976;20.144;2024-01-15T13:13:06;17.60;;;7.77;;
36663;SDS011;53333;51.976;20.144;2024-01-15T13:15:39;13.07;;;7.78;;
36663;SDS011;53333;51.976;20.144;2024-01-15T13:18:12;35.47;;;16.60;;
36663;SDS011;53333;51.976;20.144;2024-01-15T13:20:45;16.08;;;8.05;;
36663;SDS011;53333;51.976;20.144;2024-01-15T13:23:18;17.38;;;8.40;;
36663;SDS011;53333;51.976;20.144;2024-01-15T13:25:51;18.40;;;8.00;;
36663;SDS011;53333;51.976;20.144;2024-01-15T13:28:26;20.05;;;7.97;;
36663;SDS011;53333;51.976;20.144;2024-01-15T13:30:59;18.08;;;7.72;;
36663;SDS011;53333;51.976;20.144;2024-01-15T13:33:32;14.23;;;7.30;;
36663;SDS011;53333;51.976;20.144;2024-01-15T13:36:05;20.00;;;8.07;;
36663;SDS011;53333;51.976;20.144;2024-01-15T13:38:41;17.63;;;8.40;;
36663;SDS011;53333;51.976;20.144;2024-01-15T13:41:15;16.67;;;7.50;;
36663;SDS011;53333;51.976;20.144;2024-01-15T13:43:51;13.95;;;7.13;;
36663;SDS011;53333;51.976;20.144;2024-01-15T13:46:25;18.77;;;7.85;;
36663;SDS011;53333;51.976;20.144;2024-01-15T13:51:31;14.18;;;6.45;;
36663;SDS011;53333;51.976;20.144;2024-01-15T13:54:04;12.07;;;7.23;;
36663;SDS011;53333;51.976;20.144;2024-01-15T13:56:38;18.85;;;7.45;;
36663;SDS011;53333;51.976;20.144;2024-01-15T13:59:18;17.50;;;8.10;;
36663;SDS011;53333;51.976;20.144;2024-01-15T14:01:50;15.02;;;7.57;;
36663;SDS011;53333;51.976;20.144;2024-01-15T14:04:23;23.65;;;9.32;;
36663;SDS011;53333;51.976;20.144;2024-01-15T14:06:56;20.02;;;9.35;;
36663;SDS011;53333;51.976;20.144;2024-01-15T14:09:29;18.08;;;8.80;;
36663;SDS011;53333;51.976;20.144;2024-01-15T14:14:39;15.65;;;8.23;;
36663;SDS011;53333;51.976;20.144;2024-01-15T14:17:12;19.55;;;8.32;;
36663;SDS011;53333;51.976;20.144;2024-01-15T14:19:45;19.38;;;11.88;;
36663;SDS011;53333;51.976;20.144;2024-01-15T14:22:18;18.42;;;8.48;;
36663;SDS011;53333;51.976;20.144;2024-01-15T14:24:51;16.13;;;8.73;;
36663;SDS011;53333;51.976;20.144;2024-01-15T14:27:25;18.20;;;8.48;;
36663;SDS011;53333;51.976;20.144;2024-01-15T14:30:00;19.87;;;9.43;;
36663;SDS011;53333;51.976;20.144;2024-01-15T14:32:33;15.65;;;9.07;;
36663;SDS011;53333;51.976;20.144;2024-01-15T14:35:10;19.42;;;8.88;;
36663;SDS011;53333;51.976;20.144;2024-01-15T14:37:44;17.00;;;8.85;;
36663;SDS011;53333;51.976;20.144;2024-01-15T14:40:19;16.38;;;9.05;;
36663;SDS011;53333;51.976;20.144;2024-01-15T14:42:52;22.00;;;10.45;;
36663;SDS011;53333;51.976;20.144;2024-01-15T14:45:27;19.83;;;11.27;;
36663;SDS011;53333;51.976;20.144;2024-01-15T14:48:01;18.17;;;9.90;;
36663;SDS011;53333;51.976;20.144;2024-01-15T14:50:37;17.67;;;9.85;;
36663;SDS011;53333;51.976;20.144;2024-01-15T14:53:09;17.00;;;9.68;;
36663;SDS011;53333;51.976;20.144;2024-01-15T14:55:42;19.23;;;9.95;;
36663;SDS011;53333;51.976;20.144;2024-01-15T14:58:16;20.13;;;9.68;;
36663;SDS011;53333;51.976;20.144;2024-01-15T15:00:56;16.77;;;9.55;;
36663;SDS011;53333;51.976;20.144;2024-01-15T15:03:29;18.98;;;9.70;;
36663;SDS011;53333;51.976;20.144;2024-01-15T15:06:02;21.95;;;10.43;;
36663;SDS011;53333;51.976;20.144;2024-01-15T15:08:35;27.40;;;10.05;;
36663;SDS011;53333;51.976;20.144;2024-01-15T15:11:09;25.52;;;10.15;;
36663;SDS011;53333;51.976;20.144;2024-01-15T15:13:42;21.70;;;10.52;;
36663;SDS011;53333;51.976;20.144;2024-01-15T15:16:20;23.63;;;9.98;;
36663;SDS011;53333;51.976;20.144;2024-01-15T15:18:55;25.50;;;11.10;;